Terminal Aerodrome Forecast
Issued by NWS Central Illinois

Home | Current Version | Previous Version | Text Only | Print | Product List | Glossary On
Versions: 1 2 3 4 5 6 7 8 9 10 11 12 13 14
000
FTUS43 KILX 210500
TAFSPI
TAF
KSPI 210520Z 2106/2206 19008KT P6SM BKN150
     FM211500 24009KT P6SM VCSH BKN080
     FM211800 25010KT 6SM -SHRA VCTS SCT040CB BKN070
     FM220100 27005KT P6SM BKN100=

USA.gov is the U.S. government's official web portal to all federal, state and local government web resources and services.